Prince George, Virginia
Current Conditions -  °F | °C
As of 10:55 PM on Sunday 23 Nov 2014 (Local Time) from KPTB Reporting Station
Light Rain Light Rain  
Wind Chill: 61°   Ceiling: 500
Heat Index: 61°   Visibility: 4mi
Dew Point: 60°   Wind: 9mph
Humidity: 97%   Direction: 140°SE
Pressure: 29.84"   Gusts: NA
Location:  37.22°N, 77.29°W
Report Text: KPTB 240355Z AUTO 14008KT 4SM -RA OVC005 16/16 A2984 RMK AO2 P0016 T01600155
Loading
Personal Weather Stations






























Interactive Weather Map New forecast layout! Learn more

10-Day Weather Forecast

Advertisements
Track Severe Weather on mobile